sensor_id;sensor_type;location;lat;lon;timestamp;P1;durP1;ratioP1;P2;durP2;ratioP2
70806;SDS011;58882;52.170;5.386;2024-01-27T00:00:58;7.82;;;2.53;;
70806;SDS011;58882;52.170;5.386;2024-01-27T00:03:25;14.68;;;2.83;;
70806;SDS011;58882;52.170;5.386;2024-01-27T00:05:52;11.07;;;2.40;;
70806;SDS011;58882;52.170;5.386;2024-01-27T00:08:19;8.45;;;2.22;;
70806;SDS011;58882;52.170;5.386;2024-01-27T00:10:47;11.05;;;2.45;;
70806;SDS011;58882;52.170;5.386;2024-01-27T00:13:14;9.35;;;2.25;;
70806;SDS011;58882;52.170;5.386;2024-01-27T00:15:41;14.15;;;2.83;;
70806;SDS011;58882;52.170;5.386;2024-01-27T00:18:07;11.00;;;2.40;;
70806;SDS011;58882;52.170;5.386;2024-01-27T00:20:34;10.25;;;2.40;;
70806;SDS011;58882;52.170;5.386;2024-01-27T00:23:02;8.32;;;2.20;;
70806;SDS011;58882;52.170;5.386;2024-01-27T00:25:29;7.88;;;2.28;;
70806;SDS011;58882;52.170;5.386;2024-01-27T00:27:56;8.18;;;2.38;;
70806;SDS011;58882;52.170;5.386;2024-01-27T00:30:23;9.63;;;2.42;;
70806;SDS011;58882;52.170;5.386;2024-01-27T00:32:50;15.05;;;2.45;;
70806;SDS011;58882;52.170;5.386;2024-01-27T00:35:17;13.93;;;2.47;;
70806;SDS011;58882;52.170;5.386;2024-01-27T00:37:44;10.77;;;2.55;;
70806;SDS011;58882;52.170;5.386;2024-01-27T00:40:11;9.02;;;2.28;;
70806;SDS011;58882;52.170;5.386;2024-01-27T00:42:38;11.50;;;2.60;;
70806;SDS011;58882;52.170;5.386;2024-01-27T00:45:05;9.98;;;2.50;;
70806;SDS011;58882;52.170;5.386;2024-01-27T00:47:32;10.60;;;2.70;;
70806;SDS011;58882;52.170;5.386;2024-01-27T00:49:59;10.60;;;2.40;;
70806;SDS011;58882;52.170;5.386;2024-01-27T00:52:26;9.70;;;2.53;;
70806;SDS011;58882;52.170;5.386;2024-01-27T00:54:53;8.48;;;2.40;;
70806;SDS011;58882;52.170;5.386;2024-01-27T00:57:20;9.07;;;2.17;;
70806;SDS011;58882;52.170;5.386;2024-01-27T00:59:47;12.43;;;2.45;;
70806;SDS011;58882;52.170;5.386;2024-01-27T01:02:13;11.05;;;2.10;;
70806;SDS011;58882;52.170;5.386;2024-01-27T01:04:40;7.82;;;2.33;;
70806;SDS011;58882;52.170;5.386;2024-01-27T01:07:08;10.82;;;2.35;;
70806;SDS011;58882;52.170;5.386;2024-01-27T01:09:35;11.07;;;2.55;;
70806;SDS011;58882;52.170;5.386;2024-01-27T01:12:02;9.20;;;2.42;;
70806;SDS011;58882;52.170;5.386;2024-01-27T01:14:29;11.88;;;2.30;;
70806;SDS011;58882;52.170;5.386;2024-01-27T01:16:56;14.50;;;2.50;;
70806;SDS011;58882;52.170;5.386;2024-01-27T01:19:23;11.10;;;2.38;;
70806;SDS011;58882;52.170;5.386;2024-01-27T01:21:50;10.07;;;2.47;;
70806;SDS011;58882;52.170;5.386;2024-01-27T01:24:16;11.75;;;2.40;;
70806;SDS011;58882;52.170;5.386;2024-01-27T01:26:43;10.13;;;2.33;;
70806;SDS011;58882;52.170;5.386;2024-01-27T01:29:10;12.15;;;2.50;;
70806;SDS011;58882;52.170;5.386;2024-01-27T01:31:37;10.57;;;2.00;;
70806;SDS011;58882;52.170;5.386;2024-01-27T01:34:04;10.15;;;2.45;;
70806;SDS011;58882;52.170;5.386;2024-01-27T01:36:31;10.57;;;2.10;;
70806;SDS011;58882;52.170;5.386;2024-01-27T01:38:58;9.05;;;2.22;;
70806;SDS011;58882;52.170;5.386;2024-01-27T01:41:25;10.45;;;2.55;;
70806;SDS011;58882;52.170;5.386;2024-01-27T01:43:52;10.65;;;2.25;;
70806;SDS011;58882;52.170;5.386;2024-01-27T01:46:18;6.60;;;1.90;;
70806;SDS011;58882;52.170;5.386;2024-01-27T01:48:45;9.60;;;2.10;;
70806;SDS011;58882;52.170;5.386;2024-01-27T01:51:12;11.73;;;2.00;;
70806;SDS011;58882;52.170;5.386;2024-01-27T01:53:40;8.82;;;2.22;;
70806;SDS011;58882;52.170;5.386;2024-01-27T01:56:07;13.27;;;2.65;;
70806;SDS011;58882;52.170;5.386;2024-01-27T01:58:35;11.15;;;2.40;;
70806;SDS011;58882;52.170;5.386;2024-01-27T02:01:02;11.23;;;1.95;;
70806;SDS011;58882;52.170;5.386;2024-01-27T02:03:29;10.65;;;1.65;;
70806;SDS011;58882;52.170;5.386;2024-01-27T02:05:56;8.48;;;2.08;;
70806;SDS011;58882;52.170;5.386;2024-01-27T02:08:23;17.30;;;2.15;;
70806;SDS011;58882;52.170;5.386;2024-01-27T02:10:49;13.45;;;2.22;;
70806;SDS011;58882;52.170;5.386;2024-01-27T02:13:20;11.13;;;2.15;;
70806;SDS011;58882;52.170;5.386;2024-01-27T02:15:49;10.85;;;2.10;;
70806;SDS011;58882;52.170;5.386;2024-01-27T02:18:16;8.15;;;1.92;;
70806;SDS011;58882;52.170;5.386;2024-01-27T02:20:44;15.88;;;2.45;;
70806;SDS011;58882;52.170;5.386;2024-01-27T02:23:11;10.23;;;2.15;;
70806;SDS011;58882;52.170;5.386;2024-01-27T02:25:38;9.40;;;2.20;;
70806;SDS011;58882;52.170;5.386;2024-01-27T02:28:05;10.15;;;1.95;;
70806;SDS011;58882;52.170;5.386;2024-01-27T02:30:32;11.43;;;2.53;;
70806;SDS011;58882;52.170;5.386;2024-01-27T02:32:59;10.30;;;3.00;;
70806;SDS011;58882;52.170;5.386;2024-01-27T02:35:26;10.57;;;2.08;;
70806;SDS011;58882;52.170;5.386;2024-01-27T02:37:53;8.90;;;2.05;;
70806;SDS011;58882;52.170;5.386;2024-01-27T02:40:20;11.82;;;2.20;;
70806;SDS011;58882;52.170;5.386;2024-01-27T02:42:46;11.23;;;1.90;;
70806;SDS011;58882;52.170;5.386;2024-01-27T02:45:13;9.57;;;2.05;;
70806;SDS011;58882;52.170;5.386;2024-01-27T02:47:40;9.25;;;1.90;;
70806;SDS011;58882;52.170;5.386;2024-01-27T02:50:07;6.97;;;1.70;;
70806;SDS011;58882;52.170;5.386;2024-01-27T02:52:35;8.52;;;1.85;;
70806;SDS011;58882;52.170;5.386;2024-01-27T02:55:02;7.43;;;1.73;;
70806;SDS011;58882;52.170;5.386;2024-01-27T02:57:29;8.18;;;1.65;;
70806;SDS011;58882;52.170;5.386;2024-01-27T02:59:56;5.93;;;1.65;;
70806;SDS011;58882;52.170;5.386;2024-01-27T03:02:23;9.10;;;1.70;;
70806;SDS011;58882;52.170;5.386;2024-01-27T03:04:50;13.85;;;2.03;;
70806;SDS011;58882;52.170;5.386;2024-01-27T03:07:16;9.68;;;1.98;;
70806;SDS011;58882;52.170;5.386;2024-01-27T03:09:43;10.00;;;2.00;;
70806;SDS011;58882;52.170;5.386;2024-01-27T03:12:10;8.57;;;1.90;;
70806;SDS011;58882;52.170;5.386;2024-01-27T03:14:37;8.07;;;1.80;;
70806;SDS011;58882;52.170;5.386;2024-01-27T03:17:04;9.55;;;1.73;;
70806;SDS011;58882;52.170;5.386;2024-01-27T03:19:30;7.53;;;1.80;;
70806;SDS011;58882;52.170;5.386;2024-01-27T03:21:57;10.40;;;2.70;;
70806;SDS011;58882;52.170;5.386;2024-01-27T03:24:24;10.18;;;1.80;;
70806;SDS011;58882;52.170;5.386;2024-01-27T03:26:51;7.03;;;1.77;;
70806;SDS011;58882;52.170;5.386;2024-01-27T03:29:18;7.15;;;1.83;;
70806;SDS011;58882;52.170;5.386;2024-01-27T03:31:45;9.27;;;1.90;;
70806;SDS011;58882;52.170;5.386;2024-01-27T03:34:12;6.50;;;1.80;;
70806;SDS011;58882;52.170;5.386;2024-01-27T03:36:39;8.88;;;1.80;;
70806;SDS011;58882;52.170;5.386;2024-01-27T03:39:06;8.30;;;1.92;;
70806;SDS011;58882;52.170;5.386;2024-01-27T03:41:34;10.90;;;1.83;;
70806;SDS011;58882;52.170;5.386;2024-01-27T03:44:01;9.35;;;1.95;;
70806;SDS011;58882;52.170;5.386;2024-01-27T03:46:28;7.15;;;1.52;;
70806;SDS011;58882;52.170;5.386;2024-01-27T03:48:54;9.68;;;1.70;;
70806;SDS011;58882;52.170;5.386;2024-01-27T03:51:22;9.82;;;1.90;;
70806;SDS011;58882;52.170;5.386;2024-01-27T03:53:52;8.75;;;1.92;;
70806;SDS011;58882;52.170;5.386;2024-01-27T03:56:18;8.85;;;2.08;;
70806;SDS011;58882;52.170;5.386;2024-01-27T03:58:45;6.63;;;1.65;;
70806;SDS011;58882;52.170;5.386;2024-01-27T04:01:12;11.23;;;2.60;;
70806;SDS011;58882;52.170;5.386;2024-01-27T04:03:39;8.27;;;1.75;;
70806;SDS011;58882;52.170;5.386;2024-01-27T04:06:06;7.00;;;1.80;;
70806;SDS011;58882;52.170;5.386;2024-01-27T04:08:33;9.70;;;2.20;;
70806;SDS011;58882;52.170;5.386;2024-01-27T04:11:00;10.82;;;2.00;;
70806;SDS011;58882;52.170;5.386;2024-01-27T04:13:27;11.82;;;2.00;;
70806;SDS011;58882;52.170;5.386;2024-01-27T04:15:54;6.60;;;1.95;;
70806;SDS011;58882;52.170;5.386;2024-01-27T04:18:20;9.93;;;1.80;;
70806;SDS011;58882;52.170;5.386;2024-01-27T04:20:48;8.65;;;1.60;;
70806;SDS011;58882;52.170;5.386;2024-01-27T04:23:15;11.18;;;1.95;;
70806;SDS011;58882;52.170;5.386;2024-01-27T04:25:43;8.35;;;2.03;;
70806;SDS011;58882;52.170;5.386;2024-01-27T04:28:10;10.23;;;1.95;;
70806;SDS011;58882;52.170;5.386;2024-01-27T04:30:39;11.10;;;2.10;;
70806;SDS011;58882;52.170;5.386;2024-01-27T04:33:06;9.63;;;2.42;;
70806;SDS011;58882;52.170;5.386;2024-01-27T04:35:34;10.20;;;2.30;;
70806;SDS011;58882;52.170;5.386;2024-01-27T04:38:01;7.53;;;2.10;;
70806;SDS011;58882;52.170;5.386;2024-01-27T04:40:29;8.65;;;1.80;;
70806;SDS011;58882;52.170;5.386;2024-01-27T04:42:56;9.40;;;2.08;;
70806;SDS011;58882;52.170;5.386;2024-01-27T04:45:22;8.13;;;2.10;;
70806;SDS011;58882;52.170;5.386;2024-01-27T04:47:49;5.93;;;1.80;;
70806;SDS011;58882;52.170;5.386;2024-01-27T04:50:16;13.18;;;2.10;;
70806;SDS011;58882;52.170;5.386;2024-01-27T04:52:43;7.00;;;1.90;;
70806;SDS011;58882;52.170;5.386;2024-01-27T04:55:10;9.23;;;2.08;;
70806;SDS011;58882;52.170;5.386;2024-01-27T04:57:37;8.23;;;1.92;;
70806;SDS011;58882;52.170;5.386;2024-01-27T05:00:04;8.95;;;1.80;;
70806;SDS011;58882;52.170;5.386;2024-01-27T05:02:33;10.38;;;1.95;;
70806;SDS011;58882;52.170;5.386;2024-01-27T05:05:01;8.95;;;2.45;;
70806;SDS011;58882;52.170;5.386;2024-01-27T05:09:56;8.35;;;1.98;;
70806;SDS011;58882;52.170;5.386;2024-01-27T05:12:23;8.35;;;2.17;;
70806;SDS011;58882;52.170;5.386;2024-01-27T05:14:50;10.02;;;1.98;;
70806;SDS011;58882;52.170;5.386;2024-01-27T05:17:17;9.85;;;2.13;;
70806;SDS011;58882;52.170;5.386;2024-01-27T05:19:43;10.02;;;2.40;;
70806;SDS011;58882;52.170;5.386;2024-01-27T05:22:10;9.68;;;2.00;;
70806;SDS011;58882;52.170;5.386;2024-01-27T05:24:37;7.53;;;1.80;;
70806;SDS011;58882;52.170;5.386;2024-01-27T05:27:04;10.10;;;2.10;;
70806;SDS011;58882;52.170;5.386;2024-01-27T05:29:31;10.65;;;2.40;;
70806;SDS011;58882;52.170;5.386;2024-01-27T05:31:58;11.57;;;2.50;;
70806;SDS011;58882;52.170;5.386;2024-01-27T05:34:25;12.50;;;2.30;;
70806;SDS011;58882;52.170;5.386;2024-01-27T05:36:51;11.40;;;2.00;;
70806;SDS011;58882;52.170;5.386;2024-01-27T05:39:18;11.75;;;2.20;;
70806;SDS011;58882;52.170;5.386;2024-01-27T05:41:45;11.90;;;2.75;;
70806;SDS011;58882;52.170;5.386;2024-01-27T05:44:13;7.93;;;2.22;;
70806;SDS011;58882;52.170;5.386;2024-01-27T05:46:40;7.95;;;1.90;;
70806;SDS011;58882;52.170;5.386;2024-01-27T05:49:07;10.85;;;2.10;;
70806;SDS011;58882;52.170;5.386;2024-01-27T05:51:33;9.57;;;2.22;;
70806;SDS011;58882;52.170;5.386;2024-01-27T05:54:00;9.70;;;2.47;;
70806;SDS011;58882;52.170;5.386;2024-01-27T05:56:28;12.18;;;2.42;;
70806;SDS011;58882;52.170;5.386;2024-01-27T05:58:55;14.25;;;2.67;;
70806;SDS011;58882;52.170;5.386;2024-01-27T06:01:22;10.30;;;2.33;;
70806;SDS011;58882;52.170;5.386;2024-01-27T06:03:49;10.85;;;2.72;;
70806;SDS011;58882;52.170;5.386;2024-01-27T06:06:16;12.07;;;2.40;;
70806;SDS011;58882;52.170;5.386;2024-01-27T06:08:42;8.10;;;2.40;;
70806;SDS011;58882;52.170;5.386;2024-01-27T06:11:09;10.05;;;2.80;;
70806;SDS011;58882;52.170;5.386;2024-01-27T06:13:36;11.43;;;2.33;;
70806;SDS011;58882;52.170;5.386;2024-01-27T06:16:07;12.35;;;2.63;;
70806;SDS011;58882;52.170;5.386;2024-01-27T06:18:38;9.52;;;2.45;;
70806;SDS011;58882;52.170;5.386;2024-01-27T06:21:05;12.32;;;2.50;;
70806;SDS011;58882;52.170;5.386;2024-01-27T06:23:33;7.90;;;2.30;;
70806;SDS011;58882;52.170;5.386;2024-01-27T06:26:04;9.73;;;2.42;;
70806;SDS011;58882;52.170;5.386;2024-01-27T06:28:33;9.98;;;2.60;;
70806;SDS011;58882;52.170;5.386;2024-01-27T06:31:01;12.27;;;2.70;;
70806;SDS011;58882;52.170;5.386;2024-01-27T06:33:29;7.60;;;2.30;;
70806;SDS011;58882;52.170;5.386;2024-01-27T06:35:56;10.60;;;2.50;;
70806;SDS011;58882;52.170;5.386;2024-01-27T06:38:23;12.27;;;2.60;;
70806;SDS011;58882;52.170;5.386;2024-01-27T06:40:50;10.35;;;2.67;;
70806;SDS011;58882;52.170;5.386;2024-01-27T06:43:17;7.35;;;2.33;;
70806;SDS011;58882;52.170;5.386;2024-01-27T06:45:43;9.68;;;2.53;;
70806;SDS011;58882;52.170;5.386;2024-01-27T06:48:10;11.73;;;2.78;;
70806;SDS011;58882;52.170;5.386;2024-01-27T06:50:38;8.32;;;2.60;;
70806;SDS011;58882;52.170;5.386;2024-01-27T06:53:04;7.15;;;2.55;;
70806;SDS011;58882;52.170;5.386;2024-01-27T06:55:31;10.45;;;2.60;;
70806;SDS011;58882;52.170;5.386;2024-01-27T06:57:58;10.43;;;2.60;;
70806;SDS011;58882;52.170;5.386;2024-01-27T07:00:25;10.25;;;2.65;;
70806;SDS011;58882;52.170;5.386;2024-01-27T07:02:52;10.25;;;2.70;;
70806;SDS011;58882;52.170;5.386;2024-01-27T07:05:20;6.80;;;2.38;;
70806;SDS011;58882;52.170;5.386;2024-01-27T07:07:47;10.05;;;2.63;;
70806;SDS011;58882;52.170;5.386;2024-01-27T07:10:14;10.90;;;2.55;;
70806;SDS011;58882;52.170;5.386;2024-01-27T07:12:42;9.02;;;2.65;;
70806;SDS011;58882;52.170;5.386;2024-01-27T07:15:09;10.45;;;2.70;;
70806;SDS011;58882;52.170;5.386;2024-01-27T07:17:36;10.90;;;2.80;;
70806;SDS011;58882;52.170;5.386;2024-01-27T07:20:03;9.65;;;2.70;;
70806;SDS011;58882;52.170;5.386;2024-01-27T07:22:30;8.88;;;2.78;;
70806;SDS011;58882;52.170;5.386;2024-01-27T07:24:57;9.15;;;3.15;;
70806;SDS011;58882;52.170;5.386;2024-01-27T07:27:23;9.73;;;3.03;;
70806;SDS011;58882;52.170;5.386;2024-01-27T07:29:51;8.25;;;2.33;;
70806;SDS011;58882;52.170;5.386;2024-01-27T07:32:18;7.95;;;2.83;;
70806;SDS011;58882;52.170;5.386;2024-01-27T07:34:45;8.57;;;2.83;;
70806;SDS011;58882;52.170;5.386;2024-01-27T07:37:12;10.93;;;3.10;;
70806;SDS011;58882;52.170;5.386;2024-01-27T07:39:39;12.18;;;3.47;;
70806;SDS011;58882;52.170;5.386;2024-01-27T07:42:06;12.95;;;3.55;;
70806;SDS011;58882;52.170;5.386;2024-01-27T07:44:33;12.23;;;3.28;;
70806;SDS011;58882;52.170;5.386;2024-01-27T07:47:00;15.15;;;3.55;;
70806;SDS011;58882;52.170;5.386;2024-01-27T07:49:26;8.40;;;2.88;;
70806;SDS011;58882;52.170;5.386;2024-01-27T07:51:54;9.77;;;3.30;;
70806;SDS011;58882;52.170;5.386;2024-01-27T07:54:21;10.43;;;3.13;;
70806;SDS011;58882;52.170;5.386;2024-01-27T07:56:49;9.98;;;3.33;;
70806;SDS011;58882;52.170;5.386;2024-01-27T07:59:16;10.18;;;3.40;;
70806;SDS011;58882;52.170;5.386;2024-01-27T08:01:43;10.57;;;3.50;;
70806;SDS011;58882;52.170;5.386;2024-01-27T08:04:10;10.15;;;3.47;;
70806;SDS011;58882;52.170;5.386;2024-01-27T08:06:47;14.75;;;3.92;;
70806;SDS011;58882;52.170;5.386;2024-01-27T08:09:17;12.32;;;3.83;;
70806;SDS011;58882;52.170;5.386;2024-01-27T08:11:44;11.70;;;3.63;;
70806;SDS011;58882;52.170;5.386;2024-01-27T08:14:12;15.45;;;4.30;;
70806;SDS011;58882;52.170;5.386;2024-01-27T08:16:38;13.15;;;3.58;;
70806;SDS011;58882;52.170;5.386;2024-01-27T08:19:05;14.48;;;3.60;;
70806;SDS011;58882;52.170;5.386;2024-01-27T08:21:32;18.15;;;3.55;;
70806;SDS011;58882;52.170;5.386;2024-01-27T08:23:59;11.23;;;3.80;;
70806;SDS011;58882;52.170;5.386;2024-01-27T08:26:26;13.27;;;3.67;;
70806;SDS011;58882;52.170;5.386;2024-01-27T08:28:53;15.95;;;3.58;;
70806;SDS011;58882;52.170;5.386;2024-01-27T08:33:49;15.32;;;4.10;;
70806;SDS011;58882;52.170;5.386;2024-01-27T08:36:17;11.15;;;3.58;;
70806;SDS011;58882;52.170;5.386;2024-01-27T08:38:44;19.35;;;3.85;;
70806;SDS011;58882;52.170;5.386;2024-01-27T08:41:11;16.85;;;3.53;;
70806;SDS011;58882;52.170;5.386;2024-01-27T08:43:38;12.80;;;4.00;;
70806;SDS011;58882;52.170;5.386;2024-01-27T08:46:05;12.18;;;3.67;;
70806;SDS011;58882;52.170;5.386;2024-01-27T08:48:37;10.63;;;3.55;;
70806;SDS011;58882;52.170;5.386;2024-01-27T08:51:05;13.00;;;3.75;;
70806;SDS011;58882;52.170;5.386;2024-01-27T08:53:35;12.27;;;3.88;;
70806;SDS011;58882;52.170;5.386;2024-01-27T08:56:02;14.70;;;4.53;;
70806;SDS011;58882;52.170;5.386;2024-01-27T08:58:29;16.38;;;4.65;;
70806;SDS011;58882;52.170;5.386;2024-01-27T09:00:57;12.57;;;4.32;;
70806;SDS011;58882;52.170;5.386;2024-01-27T09:03:24;17.52;;;4.72;;
70806;SDS011;58882;52.170;5.386;2024-01-27T09:05:51;15.65;;;4.57;;
70806;SDS011;58882;52.170;5.386;2024-01-27T09:08:18;11.68;;;4.45;;
70806;SDS011;58882;52.170;5.386;2024-01-27T09:10:45;11.50;;;4.30;;
70806;SDS011;58882;52.170;5.386;2024-01-27T09:13:12;13.23;;;4.45;;
70806;SDS011;58882;52.170;5.386;2024-01-27T09:15:38;12.45;;;4.53;;
70806;SDS011;58882;52.170;5.386;2024-01-27T09:18:05;13.60;;;4.45;;
70806;SDS011;58882;52.170;5.386;2024-01-27T09:20:32;15.40;;;5.07;;
70806;SDS011;58882;52.170;5.386;2024-01-27T09:22:59;12.60;;;4.38;;
70806;SDS011;58882;52.170;5.386;2024-01-27T09:25:26;11.57;;;4.53;;
70806;SDS011;58882;52.170;5.386;2024-01-27T09:27:55;14.40;;;4.30;;
70806;SDS011;58882;52.170;5.386;2024-01-27T09:30:23;14.20;;;4.55;;
70806;SDS011;58882;52.170;5.386;2024-01-27T09:32:49;16.17;;;4.45;;
70806;SDS011;58882;52.170;5.386;2024-01-27T09:35:16;12.30;;;4.90;;
70806;SDS011;58882;52.170;5.386;2024-01-27T09:37:44;10.95;;;4.65;;
70806;SDS011;58882;52.170;5.386;2024-01-27T09:40:12;11.60;;;4.20;;
70806;SDS011;58882;52.170;5.386;2024-01-27T09:42:39;13.15;;;4.53;;
70806;SDS011;58882;52.170;5.386;2024-01-27T09:45:23;11.05;;;4.25;;
70806;SDS011;58882;52.170;5.386;2024-01-27T09:47:51;13.25;;;4.30;;
70806;SDS011;58882;52.170;5.386;2024-01-27T09:50:19;11.30;;;3.90;;
70806;SDS011;58882;52.170;5.386;2024-01-27T09:52:48;13.13;;;4.75;;
70806;SDS011;58882;52.170;5.386;2024-01-27T09:55:15;15.27;;;4.60;;
70806;SDS011;58882;52.170;5.386;2024-01-27T09:57:42;15.55;;;3.92;;
70806;SDS011;58882;52.170;5.386;2024-01-27T10:00:11;12.27;;;3.97;;
70806;SDS011;58882;52.170;5.386;2024-01-27T10:02:39;13.10;;;4.35;;
70806;SDS011;58882;52.170;5.386;2024-01-27T10:05:11;8.15;;;2.20;;
70806;SDS011;58882;52.170;5.386;2024-01-27T10:07:39;9.32;;;2.45;;
70806;SDS011;58882;52.170;5.386;2024-01-27T10:10:06;8.88;;;2.63;;
70806;SDS011;58882;52.170;5.386;2024-01-27T10:12:34;8.75;;;2.80;;
70806;SDS011;58882;52.170;5.386;2024-01-27T10:15:29;9.13;;;2.90;;
70806;SDS011;58882;52.170;5.386;2024-01-27T10:18:05;7.88;;;2.78;;
70806;SDS011;58882;52.170;5.386;2024-01-27T10:20:33;8.93;;;3.03;;
70806;SDS011;58882;52.170;5.386;2024-01-27T10:23:09;8.32;;;2.55;;
70806;SDS011;58882;52.170;5.386;2024-01-27T10:25:38;10.75;;;3.40;;
70806;SDS011;58882;52.170;5.386;2024-01-27T10:28:06;10.90;;;2.90;;
70806;SDS011;58882;52.170;5.386;2024-01-27T10:30:35;9.45;;;3.10;;
70806;SDS011;58882;52.170;5.386;2024-01-27T10:33:02;10.95;;;3.22;;
70806;SDS011;58882;52.170;5.386;2024-01-27T10:35:29;11.75;;;3.53;;
70806;SDS011;58882;52.170;5.386;2024-01-27T10:37:56;10.70;;;3.45;;
70806;SDS011;58882;52.170;5.386;2024-01-27T10:40:25;9.63;;;3.30;;
70806;SDS011;58882;52.170;5.386;2024-01-27T10:43:00;12.43;;;3.40;;
70806;SDS011;58882;52.170;5.386;2024-01-27T10:45:38;15.13;;;3.85;;
70806;SDS011;58882;52.170;5.386;2024-01-27T10:48:09;13.25;;;3.40;;
70806;SDS011;58882;52.170;5.386;2024-01-27T10:50:38;10.63;;;3.40;;
70806;SDS011;58882;52.170;5.386;2024-01-27T10:53:23;7.93;;;2.92;;
70806;SDS011;58882;52.170;5.386;2024-01-27T10:55:54;7.88;;;2.88;;
70806;SDS011;58882;52.170;5.386;2024-01-27T10:58:24;12.25;;;3.03;;
70806;SDS011;58882;52.170;5.386;2024-01-27T11:00:51;9.65;;;3.08;;
70806;SDS011;58882;52.170;5.386;2024-01-27T11:03:19;7.70;;;3.17;;
70806;SDS011;58882;52.170;5.386;2024-01-27T11:05:47;9.02;;;3.17;;
70806;SDS011;58882;52.170;5.386;2024-01-27T11:08:16;10.23;;;3.55;;
70806;SDS011;58882;52.170;5.386;2024-01-27T11:10:44;9.07;;;2.90;;
70806;SDS011;58882;52.170;5.386;2024-01-27T11:13:12;9.00;;;2.80;;
70806;SDS011;58882;52.170;5.386;2024-01-27T11:15:39;11.15;;;3.20;;
70806;SDS011;58882;52.170;5.386;2024-01-27T11:18:16;8.63;;;2.90;;
70806;SDS011;58882;52.170;5.386;2024-01-27T11:20:44;10.57;;;2.75;;
70806;SDS011;58882;52.170;5.386;2024-01-27T11:23:14;7.90;;;2.88;;
70806;SDS011;58882;52.170;5.386;2024-01-27T11:25:41;12.43;;;3.90;;
70806;SDS011;58882;52.170;5.386;2024-01-27T11:28:12;7.93;;;2.63;;
70806;SDS011;58882;52.170;5.386;2024-01-27T11:30:46;7.97;;;2.72;;
70806;SDS011;58882;52.170;5.386;2024-01-27T11:33:14;8.38;;;3.13;;
70806;SDS011;58882;52.170;5.386;2024-01-27T11:35:42;10.05;;;3.00;;
70806;SDS011;58882;52.170;5.386;2024-01-27T11:38:09;9.00;;;2.83;;
70806;SDS011;58882;52.170;5.386;2024-01-27T11:40:48;9.85;;;3.00;;
70806;SDS011;58882;52.170;5.386;2024-01-27T11:43:16;12.77;;;3.05;;
70806;SDS011;58882;52.170;5.386;2024-01-27T11:45:43;9.27;;;3.40;;
70806;SDS011;58882;52.170;5.386;2024-01-27T11:48:10;11.30;;;3.20;;
70806;SDS011;58882;52.170;5.386;2024-01-27T11:50:38;8.98;;;3.10;;
70806;SDS011;58882;52.170;5.386;2024-01-27T11:53:05;9.35;;;3.08;;
70806;SDS011;58882;52.170;5.386;2024-01-27T11:55:36;14.63;;;3.08;;
70806;SDS011;58882;52.170;5.386;2024-01-27T11:58:03;10.07;;;3.53;;
70806;SDS011;58882;52.170;5.386;2024-01-27T12:00:32;13.30;;;3.10;;
70806;SDS011;58882;52.170;5.386;2024-01-27T12:02:59;9.38;;;3.10;;
70806;SDS011;58882;52.170;5.386;2024-01-27T12:05:26;14.40;;;3.33;;
70806;SDS011;58882;52.170;5.386;2024-01-27T12:07:53;12.30;;;3.10;;
70806;SDS011;58882;52.170;5.386;2024-01-27T12:10:20;9.00;;;3.08;;
70806;SDS011;58882;52.170;5.386;2024-01-27T12:12:47;11.60;;;3.03;;
70806;SDS011;58882;52.170;5.386;2024-01-27T12:15:13;8.93;;;3.00;;
70806;SDS011;58882;52.170;5.386;2024-01-27T12:17:41;11.77;;;3.30;;
70806;SDS011;58882;52.170;5.386;2024-01-27T12:20:14;10.77;;;3.00;;
70806;SDS011;58882;52.170;5.386;2024-01-27T12:22:42;10.75;;;3.00;;
70806;SDS011;58882;52.170;5.386;2024-01-27T12:25:10;11.85;;;3.08;;
70806;SDS011;58882;52.170;5.386;2024-01-27T12:27:40;8.80;;;3.00;;
70806;SDS011;58882;52.170;5.386;2024-01-27T12:30:07;10.23;;;2.80;;
70806;SDS011;58882;52.170;5.386;2024-01-27T12:32:36;8.90;;;2.80;;
70806;SDS011;58882;52.170;5.386;2024-01-27T12:35:06;7.63;;;2.60;;
70806;SDS011;58882;52.170;5.386;2024-01-27T12:37:34;9.60;;;2.75;;
70806;SDS011;58882;52.170;5.386;2024-01-27T12:40:01;8.50;;;2.53;;
70806;SDS011;58882;52.170;5.386;2024-01-27T12:42:29;8.23;;;2.88;;
70806;SDS011;58882;52.170;5.386;2024-01-27T12:44:56;7.60;;;2.20;;
70806;SDS011;58882;52.170;5.386;2024-01-27T12:47:23;7.75;;;2.30;;
70806;SDS011;58882;52.170;5.386;2024-01-27T12:49:49;8.68;;;2.42;;
70806;SDS011;58882;52.170;5.386;2024-01-27T12:52:17;8.23;;;2.35;;
70806;SDS011;58882;52.170;5.386;2024-01-27T12:54:43;7.93;;;2.50;;
70806;SDS011;58882;52.170;5.386;2024-01-27T12:57:10;7.35;;;2.60;;
70806;SDS011;58882;52.170;5.386;2024-01-27T12:59:38;9.85;;;2.47;;
70806;SDS011;58882;52.170;5.386;2024-01-27T13:02:05;9.23;;;2.60;;
70806;SDS011;58882;52.170;5.386;2024-01-27T13:04:31;8.68;;;2.50;;
70806;SDS011;58882;52.170;5.386;2024-01-27T13:06:58;9.23;;;2.17;;
70806;SDS011;58882;52.170;5.386;2024-01-27T13:09:26;8.07;;;2.38;;
70806;SDS011;58882;52.170;5.386;2024-01-27T13:11:53;7.53;;;2.40;;
70806;SDS011;58882;52.170;5.386;2024-01-27T13:14:20;7.38;;;2.53;;
70806;SDS011;58882;52.170;5.386;2024-01-27T13:16:47;8.65;;;2.35;;
70806;SDS011;58882;52.170;5.386;2024-01-27T13:19:14;7.55;;;2.45;;
70806;SDS011;58882;52.170;5.386;2024-01-27T13:21:41;10.73;;;2.40;;
70806;SDS011;58882;52.170;5.386;2024-01-27T13:24:08;8.98;;;2.17;;
70806;SDS011;58882;52.170;5.386;2024-01-27T13:26:35;9.88;;;2.75;;
70806;SDS011;58882;52.170;5.386;2024-01-27T13:29:04;16.83;;;2.55;;
70806;SDS011;58882;52.170;5.386;2024-01-27T13:31:31;9.38;;;2.38;;
70806;SDS011;58882;52.170;5.386;2024-01-27T13:34:00;9.32;;;2.20;;
70806;SDS011;58882;52.170;5.386;2024-01-27T13:36:30;9.63;;;2.40;;
70806;SDS011;58882;52.170;5.386;2024-01-27T13:38:57;9.70;;;2.40;;
70806;SDS011;58882;52.170;5.386;2024-01-27T13:41:24;6.93;;;2.25;;
70806;SDS011;58882;52.170;5.386;2024-01-27T13:43:51;7.28;;;2.20;;
70806;SDS011;58882;52.170;5.386;2024-01-27T13:46:18;6.20;;;2.63;;
70806;SDS011;58882;52.170;5.386;2024-01-27T13:48:45;11.23;;;2.42;;
70806;SDS011;58882;52.170;5.386;2024-01-27T13:51:13;8.55;;;2.47;;
70806;SDS011;58882;52.170;5.386;2024-01-27T13:53:40;9.00;;;2.28;;
70806;SDS011;58882;52.170;5.386;2024-01-27T13:56:13;9.07;;;2.33;;
70806;SDS011;58882;52.170;5.386;2024-01-27T13:58:40;10.52;;;2.70;;
70806;SDS011;58882;52.170;5.386;2024-01-27T14:01:07;8.52;;;2.47;;
70806;SDS011;58882;52.170;5.386;2024-01-27T14:03:35;6.70;;;2.20;;
70806;SDS011;58882;52.170;5.386;2024-01-27T14:06:03;7.38;;;2.42;;
70806;SDS011;58882;52.170;5.386;2024-01-27T14:08:32;7.70;;;2.30;;
70806;SDS011;58882;52.170;5.386;2024-01-27T14:10:59;8.32;;;2.47;;
70806;SDS011;58882;52.170;5.386;2024-01-27T14:13:26;9.48;;;2.50;;
70806;SDS011;58882;52.170;5.386;2024-01-27T14:15:53;7.45;;;2.30;;
70806;SDS011;58882;52.170;5.386;2024-01-27T14:18:20;7.28;;;2.00;;
70806;SDS011;58882;52.170;5.386;2024-01-27T14:20:48;6.60;;;2.20;;
70806;SDS011;58882;52.170;5.386;2024-01-27T14:23:17;9.25;;;2.58;;
70806;SDS011;58882;52.170;5.386;2024-01-27T14:25:44;5.97;;;2.15;;
70806;SDS011;58882;52.170;5.386;2024-01-27T14:28:13;8.52;;;2.47;;
70806;SDS011;58882;52.170;5.386;2024-01-27T14:30:41;9.18;;;2.80;;
70806;SDS011;58882;52.170;5.386;2024-01-27T14:33:08;13.43;;;2.45;;
70806;SDS011;58882;52.170;5.386;2024-01-27T14:35:36;14.15;;;2.63;;
70806;SDS011;58882;52.170;5.386;2024-01-27T14:38:03;10.77;;;2.33;;
70806;SDS011;58882;52.170;5.386;2024-01-27T14:40:31;11.10;;;2.50;;
70806;SDS011;58882;52.170;5.386;2024-01-27T14:42:59;13.75;;;2.42;;
70806;SDS011;58882;52.170;5.386;2024-01-27T14:45:26;13.18;;;2.55;;
70806;SDS011;58882;52.170;5.386;2024-01-27T14:47:52;8.57;;;2.15;;